createdAt,value
2018-03-03T00:00:42.768Z,142.20
2018-03-03T00:01:31.812Z,135.10
2018-03-03T00:02:20.879Z,135.70
2018-03-03T00:03:09.927Z,138.05
2018-03-03T00:03:58.983Z,134.52
2018-03-03T00:04:48.047Z,124.85
2018-03-03T00:05:37.115Z,118.57
2018-03-03T00:06:26.198Z,164.88
2018-03-03T00:07:15.275Z,131.93
2018-03-03T00:08:04.314Z,139.40
2018-03-03T00:08:53.362Z,141.27
2018-03-03T00:09:42.412Z,137.73
2018-03-03T00:10:31.459Z,139.98
2018-03-03T00:11:20.528Z,134.30
2018-03-03T00:12:09.735Z,138.48
2018-03-03T00:12:58.880Z,130.82
2018-03-03T00:13:47.936Z,134.75
2018-03-03T00:14:36.982Z,134.12
2018-03-03T00:15:26.051Z,132.80
2018-03-03T00:16:15.098Z,134.18
2018-03-03T00:17:04.158Z,145.38
2018-03-03T00:17:53.201Z,142.90
2018-03-03T00:18:42.317Z,137.12
2018-03-03T00:19:31.393Z,139.52
2018-03-03T00:20:20.448Z,133.43
2018-03-03T00:21:09.496Z,129.70
2018-03-03T00:21:58.546Z,124.28
2018-03-03T00:22:47.592Z,129.48
2018-03-03T00:23:36.649Z,147.93
2018-03-03T00:24:25.691Z,145.07
2018-03-03T00:25:14.793Z,130.12
2018-03-03T00:26:03.844Z,128.27
2018-03-03T00:26:52.909Z,130.37
2018-03-03T00:27:41.958Z,122.60
2018-03-03T00:28:31.020Z,117.93
2018-03-03T00:29:20.084Z,108.50
2018-03-03T00:30:09.245Z,117.25
2018-03-03T00:30:58.298Z,133.60
2018-03-03T00:31:47.353Z,146.82
2018-03-03T00:32:36.400Z,141.55
2018-03-03T00:33:25.454Z,150.57
2018-03-03T00:34:14.519Z,142.05
2018-03-03T00:35:03.594Z,126.50
2018-03-03T00:35:52.696Z,132.02
2018-03-03T00:36:41.747Z,130.10
2018-03-03T00:37:30.808Z,115.55
2018-03-03T00:38:19.875Z,114.40
2018-03-03T00:39:08.922Z,114.70
2018-03-03T00:39:57.975Z,110.18
2018-03-03T00:40:47.030Z,112.47
2018-03-03T00:41:36.175Z,108.75
2018-03-03T00:42:25.239Z,110.78
2018-03-03T00:43:14.306Z,111.25
2018-03-03T00:44:03.373Z,111.10
2018-03-03T00:44:52.409Z,104.85
2018-03-03T00:45:41.464Z,110.90
2018-03-03T00:46:30.505Z,114.55
2018-03-03T00:47:19.711Z,115.82
2018-03-03T00:48:08.820Z,119.03
2018-03-03T00:48:57.874Z,110.22
2018-03-03T00:49:46.931Z,109.25
2018-03-03T00:50:35.976Z,135.65
2018-03-03T00:51:25.024Z,132.73
2018-03-03T00:52:14.177Z,117.87
2018-03-03T00:53:03.238Z,100.72
2018-03-03T00:53:52.282Z,105.18
2018-03-03T00:54:41.329Z,102.03
2018-03-03T00:55:30.377Z,99.82
2018-03-03T00:56:19.414Z,94.53
2018-03-03T00:57:08.453Z,111.00
2018-03-03T00:57:57.556Z,112.90
2018-03-03T00:58:46.601Z,120.47
2018-03-03T00:59:35.686Z,127.50
2018-03-03T01:00:24.722Z,131.55
2018-03-03T01:01:13.781Z,130.43
2018-03-03T01:02:02.827Z,115.80
2018-03-03T01:02:51.867Z,110.37
2018-03-03T01:03:40.945Z,110.75
2018-03-03T01:04:30.188Z,106.47
2018-03-03T01:05:19.238Z,108.12
2018-03-03T01:06:08.282Z,109.60
2018-03-03T01:06:57.338Z,105.15
2018-03-03T01:07:46.401Z,109.95
2018-03-03T01:08:35.449Z,108.40
2018-03-03T01:09:24.649Z,118.40
2018-03-03T01:10:13.806Z,116.95
2018-03-03T01:11:02.846Z,106.65
2018-03-03T01:11:51.902Z,106.18
2018-03-03T01:12:40.953Z,106.87
2018-03-03T01:13:29.994Z,109.65
2018-03-03T01:14:19.041Z,110.78
2018-03-03T01:15:08.088Z,121.05
2018-03-03T01:15:57.188Z,113.75
2018-03-03T01:16:46.230Z,111.82
2018-03-03T01:17:35.275Z,111.93
2018-03-03T01:18:24.336Z,104.30
2018-03-03T01:19:13.394Z,103.82
2018-03-03T01:20:02.437Z,102.05
2018-03-03T01:20:51.478Z,105.90
2018-03-03T01:21:43.102Z,103.38
2018-03-03T01:22:32.157Z,102.68
2018-03-03T01:23:21.205Z,97.75
2018-03-03T01:24:10.257Z,91.87
2018-03-03T01:24:59.294Z,98.57
2018-03-03T01:25:48.473Z,109.03
2018-03-03T01:26:37.520Z,110.88
2018-03-03T01:27:26.592Z,126.45
2018-03-03T01:28:15.634Z,129.50
2018-03-03T01:29:04.707Z,111.62
2018-03-03T01:29:53.762Z,94.30
2018-03-03T01:30:42.817Z,95.85
2018-03-03T01:31:31.902Z,94.55
2018-03-03T01:32:20.945Z,94.03
2018-03-03T01:33:09.989Z,92.55
2018-03-03T01:33:59.056Z,102.35
2018-03-03T01:34:48.100Z,95.47
2018-03-03T01:35:37.153Z,94.68
2018-03-03T01:36:26.203Z,92.82
2018-03-03T01:37:15.285Z,89.82
2018-03-03T01:38:04.349Z,89.78
2018-03-03T01:38:53.417Z,102.40
2018-03-03T01:39:42.488Z,102.12
2018-03-03T01:40:31.532Z,91.75
2018-03-03T01:41:20.574Z,90.43
2018-03-03T01:42:09.678Z,89.07
2018-03-03T01:42:58.879Z,92.57
2018-03-03T01:43:47.924Z,92.32
2018-03-03T01:44:36.957Z,89.68
2018-03-03T01:45:26.001Z,89.55
2018-03-03T01:46:15.091Z,96.12
2018-03-03T01:47:04.133Z,102.03
2018-03-03T01:47:53.241Z,108.85
2018-03-03T01:48:42.298Z,116.78
2018-03-03T01:49:31.348Z,117.35
2018-03-03T01:50:20.446Z,114.22
2018-03-03T01:52:32.111Z,116.68
2018-03-03T01:53:21.162Z,126.72
2018-03-03T01:54:10.241Z,136.00
2018-03-03T01:54:59.414Z,129.45
2018-03-03T01:55:48.484Z,123.00
2018-03-03T01:56:37.527Z,122.60
2018-03-03T01:57:26.721Z,126.75
2018-03-03T01:58:15.774Z,142.55
2018-03-03T01:59:04.831Z,143.60
2018-03-03T01:59:53.914Z,141.75
2018-03-03T02:00:42.960Z,136.10
2018-03-03T02:01:32.037Z,131.90
2018-03-03T02:02:21.084Z,143.73
2018-03-03T02:03:10.173Z,143.50
2018-03-03T02:03:59.225Z,146.10
2018-03-03T02:04:48.275Z,143.32
2018-03-03T02:05:37.322Z,151.15
2018-03-03T02:06:26.365Z,136.00
2018-03-03T02:07:15.423Z,143.57
2018-03-03T02:08:04.475Z,139.88
2018-03-03T02:08:53.694Z,143.93
2018-03-03T02:09:42.741Z,158.32
2018-03-03T02:10:31.791Z,156.12
2018-03-03T02:11:20.854Z,160.88
2018-03-03T02:12:09.899Z,149.87
2018-03-03T02:12:58.967Z,140.57
2018-03-03T02:13:48.036Z,148.10
2018-03-03T02:14:37.251Z,145.73
2018-03-03T02:15:26.303Z,149.02
2018-03-03T02:16:15.380Z,147.52
2018-03-03T02:17:04.418Z,145.18
2018-03-03T02:17:53.468Z,135.82
2018-03-03T02:18:42.511Z,130.77
2018-03-03T02:19:31.561Z,127.28
2018-03-03T02:20:20.667Z,128.15
2018-03-03T02:21:09.733Z,127.30
2018-03-03T02:21:58.801Z,130.85
2018-03-03T02:22:47.860Z,136.80
2018-03-03T02:23:36.901Z,128.68
2018-03-03T02:24:26.022Z,125.55
2018-03-03T02:25:15.073Z,119.45
2018-03-03T02:26:04.135Z,117.28
2018-03-03T02:26:53.198Z,126.18
2018-03-03T02:27:42.248Z,123.85
2018-03-03T02:28:31.324Z,117.57
2018-03-03T02:29:20.457Z,114.05
2018-03-03T02:30:09.611Z,115.72
2018-03-03T02:30:58.662Z,125.20
2018-03-03T02:31:47.707Z,121.97
2018-03-03T02:32:36.770Z,117.20
2018-03-03T02:33:25.823Z,116.20
2018-03-03T02:34:14.956Z,120.10
2018-03-03T02:35:04.198Z,119.07
2018-03-03T02:35:53.254Z,121.95
2018-03-03T02:36:42.314Z,119.47
2018-03-03T02:37:31.371Z,115.35
2018-03-03T02:38:20.415Z,117.20
2018-03-03T02:39:09.469Z,114.45
2018-03-03T02:39:58.529Z,109.05
2018-03-03T02:40:47.633Z,110.35
2018-03-03T02:41:36.683Z,111.53
2018-03-03T02:42:25.738Z,123.00
2018-03-03T02:43:14.792Z,128.48
2018-03-03T02:44:03.841Z,119.45
2018-03-03T02:44:52.901Z,138.82
2018-03-03T02:45:42.064Z,135.70
2018-03-03T02:46:31.162Z,130.80
2018-03-03T02:47:20.235Z,121.37
2018-03-03T02:48:09.295Z,121.32
2018-03-03T02:48:58.404Z,125.15
2018-03-03T02:49:47.449Z,150.32
2018-03-03T02:50:36.489Z,128.60
2018-03-03T02:51:25.535Z,124.57
2018-03-03T02:52:14.579Z,122.75
2018-03-03T02:53:03.619Z,119.60
2018-03-03T02:53:52.671Z,117.82
2018-03-03T02:54:41.811Z,114.35
2018-03-03T02:55:30.874Z,113.20
2018-03-03T02:56:19.922Z,115.68
2018-03-03T02:57:08.973Z,127.50
2018-03-03T02:57:58.022Z,118.55
2018-03-03T02:58:47.074Z,118.47
2018-03-03T02:59:36.113Z,115.22
2018-03-03T03:00:25.205Z,117.75
2018-03-03T03:01:14.256Z,105.57
2018-03-03T03:02:03.326Z,95.40
2018-03-03T03:02:52.401Z,92.68
2018-03-03T03:03:41.450Z,106.03
2018-03-03T03:04:30.545Z,105.47
2018-03-03T03:05:19.591Z,116.37
2018-03-03T03:06:11.717Z,114.37
2018-03-03T03:07:00.776Z,109.60
2018-03-03T03:07:49.842Z,105.70
2018-03-03T03:08:38.879Z,96.60
2018-03-03T03:09:27.943Z,113.47
2018-03-03T03:10:17.005Z,106.47
2018-03-03T03:11:06.043Z,98.70
2018-03-03T03:11:55.180Z,102.90
2018-03-03T03:12:44.244Z,101.18
2018-03-03T03:13:33.298Z,97.50
2018-03-03T03:14:22.336Z,95.65
2018-03-03T03:15:11.362Z,93.03
2018-03-03T03:16:00.399Z,92.12
2018-03-03T03:16:49.446Z,93.35
2018-03-03T03:17:38.560Z,89.80
2018-03-03T03:18:27.613Z,88.78
2018-03-03T03:19:16.663Z,96.07
2018-03-03T03:20:05.702Z,104.95
2018-03-03T03:20:54.757Z,104.32
2018-03-03T03:21:43.821Z,103.78
2018-03-03T03:22:32.869Z,90.72
2018-03-03T03:23:21.981Z,95.05
2018-03-03T03:24:11.050Z,90.15
2018-03-03T03:25:00.088Z,97.82
2018-03-03T03:25:49.131Z,91.40
2018-03-03T03:26:38.203Z,85.82
2018-03-03T03:27:27.283Z,88.95
2018-03-03T03:28:16.356Z,85.50
2018-03-03T03:29:05.485Z,84.47
2018-03-03T03:29:54.529Z,87.62
2018-03-03T03:30:43.588Z,80.25
2018-03-03T03:31:32.652Z,70.55
2018-03-03T03:32:21.867Z,75.35
2018-03-03T03:33:10.911Z,72.43
2018-03-03T03:33:59.949Z,65.80
2018-03-03T03:34:49.010Z,69.87
2018-03-03T03:35:38.066Z,66.28
2018-03-03T03:36:27.121Z,64.43
2018-03-03T03:37:16.164Z,60.08
2018-03-03T03:38:05.234Z,61.70
2018-03-03T03:38:54.286Z,60.10
2018-03-03T03:39:43.325Z,61.13
2018-03-03T03:40:32.362Z,61.13
2018-03-03T03:41:21.412Z,56.33
2018-03-03T03:42:10.448Z,59.70
2018-03-03T03:42:59.478Z,58.60
2018-03-03T03:43:48.545Z,55.20
2018-03-03T03:44:37.570Z,55.20
2018-03-03T03:45:26.626Z,58.75
2018-03-03T03:46:15.672Z,57.70
2018-03-03T03:47:04.701Z,54.42
2018-03-03T03:47:53.757Z,58.03
2018-03-03T03:48:42.798Z,55.70
2018-03-03T03:49:31.936Z,55.00
2018-03-03T03:50:20.966Z,55.00
2018-03-03T03:51:10.007Z,53.00
2018-03-03T03:51:59.038Z,51.55
2018-03-03T03:52:48.077Z,52.08
2018-03-03T03:53:37.105Z,51.25
2018-03-03T03:54:26.136Z,52.20
2018-03-03T03:55:15.225Z,55.03
2018-03-03T03:56:04.269Z,57.00
2018-03-03T03:56:53.303Z,54.53
2018-03-03T03:57:42.352Z,54.15
2018-03-03T03:58:31.406Z,53.97
2018-03-03T03:59:20.438Z,50.55
2018-03-03T04:00:09.470Z,55.03
2018-03-03T04:00:58.562Z,53.33
2018-03-03T04:01:47.604Z,50.75
2018-03-03T04:02:36.644Z,51.75
2018-03-03T04:03:25.690Z,52.03
2018-03-03T04:04:14.725Z,52.67
2018-03-03T04:05:03.770Z,51.37
2018-03-03T04:05:52.798Z,50.53
2018-03-03T04:06:41.938Z,54.28
2018-03-03T04:07:30.970Z,48.50
2018-03-03T04:08:20.005Z,40.85
2018-03-03T04:09:09.097Z,40.72
2018-03-03T04:09:58.130Z,39.63
2018-03-03T04:10:47.234Z,38.47
2018-03-03T04:11:36.260Z,39.90
2018-03-03T04:12:25.301Z,37.25
2018-03-03T04:13:14.340Z,35.45
2018-03-03T04:14:03.373Z,32.95
2018-03-03T04:14:52.414Z,32.20
2018-03-03T04:15:41.453Z,33.22
2018-03-03T04:16:30.533Z,33.85
2018-03-03T04:17:19.562Z,32.88
2018-03-03T04:18:08.597Z,34.35
2018-03-03T04:18:57.629Z,33.67
2018-03-03T04:19:46.663Z,33.83
2018-03-03T04:20:35.822Z,30.55
2018-03-03T04:21:24.853Z,32.17
2018-03-03T04:22:13.885Z,30.98
2018-03-03T04:23:02.919Z,29.67
2018-03-03T04:23:51.991Z,32.08
2018-03-03T04:24:41.040Z,42.03
2018-03-03T04:25:30.104Z,48.50
2018-03-03T04:26:19.193Z,46.88
2018-03-03T04:27:08.266Z,40.40
2018-03-03T04:27:57.310Z,37.20
2018-03-03T04:28:46.371Z,39.47
2018-03-03T04:29:35.430Z,40.97
2018-03-03T04:30:24.482Z,40.80
2018-03-03T04:31:13.529Z,40.63
2018-03-03T04:32:02.693Z,36.90
2018-03-03T04:32:51.746Z,35.33
2018-03-03T04:33:40.805Z,36.75
2018-03-03T04:34:29.857Z,36.75
2018-03-03T04:35:18.946Z,36.83
2018-03-03T04:36:08.011Z,38.40
2018-03-03T04:36:57.036Z,36.72
2018-03-03T04:37:46.098Z,53.67
2018-03-03T04:38:35.155Z,46.15
2018-03-03T04:39:24.190Z,56.35
2018-03-03T04:40:13.229Z,55.75
2018-03-03T04:41:02.337Z,48.08
2018-03-03T04:41:51.369Z,45.70
2018-03-03T04:42:40.416Z,47.38
2018-03-03T04:43:29.472Z,49.22
2018-03-03T04:44:18.551Z,50.12
2018-03-03T04:45:07.596Z,46.95
2018-03-03T04:45:56.708Z,57.30
2018-03-03T04:46:45.780Z,43.13
2018-03-03T04:47:34.982Z,35.50
2018-03-03T04:48:24.042Z,41.20
2018-03-03T04:49:13.144Z,34.50
2018-03-03T04:50:02.173Z,32.55
2018-03-03T04:50:51.246Z,32.85
2018-03-03T04:51:40.308Z,32.67
2018-03-03T04:52:29.372Z,30.95
2018-03-03T04:53:18.538Z,33.30
2018-03-03T04:54:07.588Z,36.50
2018-03-03T04:54:56.687Z,33.22
2018-03-03T04:55:45.729Z,33.53
2018-03-03T04:56:34.875Z,36.88
2018-03-03T04:57:23.938Z,35.67
2018-03-03T04:58:22.977Z,36.22
2018-03-03T05:00:37.735Z,41.05
2018-03-03T05:02:58.742Z,36.72
2018-03-03T05:03:53.367Z,30.17
2018-03-03T05:05:00.026Z,31.52
2018-03-03T05:06:07.697Z,36.00
2018-03-03T05:07:02.205Z,32.85
2018-03-03T05:07:54.733Z,40.72
2018-03-03T05:08:43.811Z,44.83
2018-03-03T05:09:32.888Z,39.20
2018-03-03T05:10:23.671Z,46.05
2018-03-03T05:11:16.148Z,42.97
2018-03-03T05:12:05.203Z,39.17
2018-03-03T05:13:11.027Z,40.95
2018-03-03T05:14:05.514Z,40.95
2018-03-03T05:15:09.155Z,45.60
2018-03-03T05:16:16.810Z,43.22
2018-03-03T05:17:11.345Z,44.80
2018-03-03T05:18:05.930Z,53.80
2018-03-03T05:19:11.274Z,61.63
2018-03-03T05:20:05.917Z,66.35
2018-03-03T05:21:00.498Z,66.90
2018-03-03T05:21:54.931Z,73.90
2018-03-03T05:22:49.473Z,67.65
2018-03-03T05:23:44.096Z,82.43
2018-03-03T05:24:38.630Z,90.43
2018-03-03T05:25:33.184Z,86.57
2018-03-03T05:26:37.102Z,90.62
2018-03-03T05:27:31.764Z,90.50
2018-03-03T05:28:26.294Z,111.55
2018-03-03T05:29:35.358Z,113.25
2018-03-03T05:31:48.978Z,118.85
2018-03-03T05:32:43.555Z,101.87
2018-03-03T05:33:38.149Z,92.57
2018-03-03T05:35:59.766Z,49.90
2018-03-03T05:38:22.488Z,115.85
2018-03-03T05:39:28.199Z,105.53
2018-03-03T05:40:22.775Z,89.40
2018-03-03T05:41:17.255Z,97.07
2018-03-03T05:42:11.939Z,104.50
2018-03-03T05:43:07.376Z,109.70
2018-03-03T05:44:02.045Z,122.95
2018-03-03T05:44:55.947Z,115.25
2018-03-03T05:46:03.771Z,135.23
2018-03-03T05:46:58.426Z,91.03
2018-03-03T05:47:52.937Z,97.70
2018-03-03T05:50:18.060Z,111.95
2018-03-03T05:53:10.811Z,130.05
2018-03-03T05:54:05.270Z,168.37
2018-03-03T05:54:59.746Z,149.10
2018-03-03T05:57:32.303Z,148.43
2018-03-03T05:58:37.080Z,144.25
2018-03-03T05:59:31.619Z,143.27
2018-03-03T06:01:43.754Z,150.48
2018-03-03T06:02:33.674Z,133.02
2018-03-03T06:03:28.439Z,133.05
2018-03-03T06:04:18.580Z,162.68
2018-03-03T06:05:23.264Z,149.98
2018-03-03T06:07:42.142Z,160.65
2018-03-03T06:08:37.716Z,112.25
2018-03-03T06:09:41.752Z,89.70
2018-03-03T06:10:49.378Z,93.07
2018-03-03T06:11:43.847Z,102.28
2018-03-03T06:12:32.925Z,104.70
2018-03-03T06:13:22.095Z,135.50
2018-03-03T06:14:11.201Z,172.13
2018-03-03T06:15:00.309Z,137.40
2018-03-03T06:15:49.374Z,172.00
2018-03-03T06:16:38.472Z,170.15
2018-03-03T06:17:27.553Z,101.22
2018-03-03T06:18:16.615Z,89.47
2018-03-03T06:19:05.707Z,102.30
2018-03-03T06:19:54.819Z,92.68
2018-03-03T06:20:43.873Z,99.95
2018-03-03T06:21:32.931Z,102.62
2018-03-03T06:22:22.006Z,150.70
2018-03-03T06:23:11.075Z,110.05
2018-03-03T06:24:00.142Z,83.50
2018-03-03T06:24:49.195Z,52.67
2018-03-03T06:25:38.325Z,56.28
2018-03-03T06:26:27.361Z,53.80
2018-03-03T06:27:16.420Z,58.05
2018-03-03T06:28:05.452Z,59.97
2018-03-03T06:28:54.537Z,67.45
2018-03-03T06:29:43.635Z,59.85
2018-03-03T06:30:32.719Z,61.88
2018-03-03T06:31:21.911Z,57.45
2018-03-03T06:32:10.952Z,60.00
2018-03-03T06:32:59.982Z,49.80
2018-03-03T06:33:49.016Z,49.72
2018-03-03T06:34:38.050Z,52.60
2018-03-03T06:35:27.085Z,43.47
2018-03-03T06:36:16.138Z,41.28
2018-03-03T06:37:05.376Z,41.78
2018-03-03T06:37:54.448Z,42.30
2018-03-03T06:38:43.503Z,44.40
2018-03-03T06:39:32.570Z,53.03
2018-03-03T06:40:21.718Z,103.57
2018-03-03T06:41:10.887Z,101.45
2018-03-03T06:42:00.227Z,95.05
2018-03-03T06:42:49.315Z,85.05
2018-03-03T06:43:38.386Z,108.15
2018-03-03T06:44:27.441Z,128.98
2018-03-03T06:45:16.522Z,147.10
2018-03-03T06:46:05.595Z,91.00
2018-03-03T06:46:54.650Z,74.85
2018-03-03T06:47:43.698Z,53.00
2018-03-03T06:48:32.834Z,62.90
2018-03-03T06:49:22.053Z,128.82
2018-03-03T06:50:11.109Z,151.63
2018-03-03T06:51:00.166Z,171.18
2018-03-03T06:51:49.235Z,121.87
2018-03-03T06:52:38.462Z,148.70
2018-03-03T06:53:27.552Z,119.65
2018-03-03T06:54:17.226Z,120.78
2018-03-03T06:55:07.753Z,113.93
2018-03-03T06:55:56.815Z,105.45
2018-03-03T06:56:45.876Z,102.50
2018-03-03T06:57:34.925Z,104.80
2018-03-03T06:58:23.968Z,108.90
2018-03-03T06:59:13.065Z,101.53
2018-03-03T07:00:02.150Z,101.47
2018-03-03T07:00:51.225Z,95.32
2018-03-03T07:01:40.299Z,79.28
2018-03-03T07:02:29.355Z,84.78
2018-03-03T07:03:18.486Z,80.15
2018-03-03T07:04:07.906Z,74.68
2018-03-03T07:04:56.961Z,69.07
2018-03-03T07:05:46.019Z,67.25
2018-03-03T07:06:35.068Z,73.37
2018-03-03T07:07:24.197Z,85.50
2018-03-03T07:08:13.271Z,77.10
2018-03-03T07:09:02.315Z,71.55
2018-03-03T07:09:51.394Z,100.03
2018-03-03T07:10:40.451Z,86.97
2018-03-03T07:11:29.611Z,86.00
2018-03-03T07:12:18.677Z,84.60
2018-03-03T07:13:07.736Z,83.57
2018-03-03T07:13:56.789Z,68.82
2018-03-03T07:14:51.399Z,72.15
2018-03-03T07:15:40.554Z,78.37
2018-03-03T07:16:29.625Z,70.90
2018-03-03T07:17:18.810Z,58.15
2018-03-03T07:18:07.867Z,64.37
2018-03-03T07:18:56.913Z,42.55
2018-03-03T07:19:45.976Z,71.00
2018-03-03T07:20:35.008Z,63.60
2018-03-03T07:21:24.108Z,72.32
2018-03-03T07:22:13.230Z,89.97
2018-03-03T07:23:02.262Z,65.37
2018-03-03T07:23:51.327Z,46.88
2018-03-03T07:24:40.368Z,42.65
2018-03-03T07:25:29.422Z,44.22
2018-03-03T07:26:18.501Z,40.10
2018-03-03T07:27:07.535Z,35.80
2018-03-03T07:27:56.609Z,39.38
2018-03-03T07:28:45.705Z,29.67
2018-03-03T07:29:34.725Z,33.58
2018-03-03T07:30:23.762Z,34.10
2018-03-03T07:31:12.801Z,50.50
2018-03-03T07:32:01.943Z,77.43
2018-03-03T07:32:50.975Z,70.65
2018-03-03T07:33:40.034Z,36.00
2018-03-03T07:34:29.064Z,40.22
2018-03-03T07:35:18.122Z,35.20
2018-03-03T07:36:07.171Z,30.98
2018-03-03T07:36:56.312Z,27.27
2018-03-03T07:37:45.412Z,27.05
2018-03-03T07:38:34.451Z,27.83
2018-03-03T07:39:23.502Z,27.92
2018-03-03T07:40:12.576Z,29.75
2018-03-03T07:41:01.618Z,32.95
2018-03-03T07:41:50.658Z,42.33
2018-03-03T07:42:39.791Z,46.40
2018-03-03T07:43:28.820Z,38.72
2018-03-03T07:44:17.864Z,35.30
2018-03-03T07:45:06.939Z,33.97
2018-03-03T07:45:55.994Z,29.27
2018-03-03T07:46:45.028Z,37.72
2018-03-03T07:47:34.074Z,36.38
2018-03-03T07:48:23.142Z,41.63
2018-03-03T07:49:12.202Z,48.20
2018-03-03T07:50:01.261Z,41.37
2018-03-03T07:50:50.353Z,43.53
2018-03-03T07:51:39.414Z,46.78
2018-03-03T07:52:28.453Z,64.32
2018-03-03T07:53:17.491Z,64.03
2018-03-03T07:54:06.695Z,54.08
2018-03-03T07:54:55.783Z,36.80
2018-03-03T07:55:44.822Z,70.05
2018-03-03T07:56:45.560Z,43.80
2018-03-03T07:57:34.686Z,43.38
2018-03-03T07:59:50.374Z,35.10
2018-03-03T08:00:39.690Z,32.05
2018-03-03T08:01:28.726Z,32.22
2018-03-03T08:02:17.762Z,34.63
2018-03-03T08:03:06.906Z,43.95
2018-03-03T08:03:55.984Z,54.38
2018-03-03T08:04:45.034Z,50.80
2018-03-03T08:05:34.100Z,43.90
2018-03-03T08:06:23.143Z,48.97
2018-03-03T08:07:12.213Z,42.45
2018-03-03T08:08:01.281Z,43.45
2018-03-03T08:08:50.388Z,52.45
2018-03-03T08:09:39.449Z,37.40
2018-03-03T08:10:28.492Z,43.72
2018-03-03T08:11:17.537Z,43.40
2018-03-03T08:12:06.592Z,50.22
2018-03-03T08:12:55.624Z,50.78
2018-03-03T08:13:44.684Z,50.10
2018-03-03T08:14:33.787Z,35.75
2018-03-03T08:15:22.976Z,33.30
2018-03-03T08:16:12.026Z,58.13
2018-03-03T08:17:01.068Z,41.15
2018-03-03T08:17:50.117Z,36.65
2018-03-03T08:18:39.151Z,57.15
2018-03-03T08:19:28.196Z,69.60
2018-03-03T08:20:17.483Z,66.20
2018-03-03T08:21:06.522Z,81.37
2018-03-03T08:21:55.556Z,61.50
2018-03-03T08:22:44.609Z,60.83
2018-03-03T08:23:33.643Z,50.55
2018-03-03T08:24:22.735Z,54.03
2018-03-03T08:25:11.778Z,54.13
2018-03-03T08:26:00.943Z,69.53
2018-03-03T08:26:49.998Z,45.33
2018-03-03T08:27:39.102Z,52.65
2018-03-03T08:28:28.186Z,52.70
2018-03-03T08:29:17.225Z,38.65
2018-03-03T08:30:06.371Z,45.28
2018-03-03T08:30:55.420Z,48.03
2018-03-03T08:31:44.640Z,46.28
2018-03-03T08:32:33.778Z,35.75
2018-03-03T08:33:22.831Z,29.67
2018-03-03T08:34:11.945Z,18.42
2018-03-03T08:35:00.984Z,21.58
2018-03-03T08:35:50.024Z,28.42
2018-03-03T08:36:39.185Z,32.60
2018-03-03T08:37:28.226Z,33.90
2018-03-03T08:38:17.276Z,38.90
2018-03-03T08:39:06.352Z,24.30
2018-03-03T08:39:55.412Z,24.40
2018-03-03T08:40:44.445Z,29.23
2018-03-03T08:41:33.493Z,64.62
2018-03-03T08:42:22.580Z,87.85
2018-03-03T08:43:11.626Z,104.70
2018-03-03T08:44:00.700Z,118.75
2018-03-03T08:44:49.772Z,120.45
2018-03-03T08:45:38.834Z,105.43
2018-03-03T08:46:27.915Z,94.10
2018-03-03T08:47:16.959Z,140.05
2018-03-03T08:48:06.141Z,141.62
2018-03-03T08:48:55.195Z,148.13
2018-03-03T08:49:44.302Z,116.57
2018-03-03T08:50:33.350Z,115.72
2018-03-03T08:51:22.479Z,96.80
2018-03-03T08:52:11.502Z,93.85
2018-03-03T08:53:00.553Z,82.15
2018-03-03T08:53:49.594Z,91.07
2018-03-03T08:54:38.655Z,89.93
2018-03-03T08:55:27.790Z,106.47
2018-03-03T08:56:16.876Z,84.20
2018-03-03T08:57:05.942Z,60.85
2018-03-03T08:57:54.992Z,71.20
2018-03-03T08:58:44.037Z,77.10
2018-03-03T08:59:33.132Z,78.78
2018-03-03T09:00:22.169Z,80.45
2018-03-03T09:01:11.196Z,76.45
2018-03-03T09:02:00.242Z,63.53
2018-03-03T09:02:50.158Z,76.20
2018-03-03T09:03:39.190Z,77.68
2018-03-03T09:04:28.355Z,76.37
2018-03-03T09:05:17.524Z,46.22
2018-03-03T09:06:06.553Z,49.83
2018-03-03T09:06:55.600Z,38.28
2018-03-03T09:07:44.696Z,30.65
2018-03-03T09:08:33.744Z,30.92
2018-03-03T09:09:22.788Z,35.42
2018-03-03T09:10:11.977Z,35.90
2018-03-03T09:11:01.009Z,37.00
2018-03-03T09:11:50.049Z,37.63
2018-03-03T09:12:39.142Z,25.40
2018-03-03T09:13:28.182Z,16.30
2018-03-03T09:14:17.229Z,15.02
2018-03-03T09:15:06.269Z,15.13
2018-03-03T09:15:55.346Z,11.75
2018-03-03T09:16:44.429Z,11.38
2018-03-03T09:17:33.502Z,17.90
2018-03-03T09:18:22.593Z,17.30
2018-03-03T09:19:11.641Z,17.40
2018-03-03T09:20:00.702Z,18.40
2018-03-03T09:20:49.826Z,19.35
2018-03-03T09:21:38.881Z,18.45
2018-03-03T09:22:27.981Z,19.77
2018-03-03T09:23:17.066Z,24.15
2018-03-03T09:24:06.111Z,28.33
2018-03-03T09:24:55.141Z,23.45
2018-03-03T09:25:44.180Z,24.85
2018-03-03T09:26:33.353Z,19.92
2018-03-03T09:27:22.413Z,21.33
2018-03-03T09:28:11.462Z,21.95
2018-03-03T09:29:00.564Z,23.55
2018-03-03T09:29:49.636Z,29.73
2018-03-03T09:30:38.779Z,21.20
2018-03-03T09:31:27.887Z,22.62
2018-03-03T09:32:16.930Z,18.33
2018-03-03T09:33:06.010Z,16.95
2018-03-03T09:33:55.058Z,12.90
2018-03-03T09:34:44.284Z,12.32
2018-03-03T09:35:33.316Z,10.95
2018-03-03T09:36:22.377Z,8.52
2018-03-03T09:37:11.433Z,9.75
2018-03-03T09:38:00.462Z,30.65
2018-03-03T09:38:49.531Z,19.37
2018-03-03T09:39:38.560Z,56.50
2018-03-03T09:40:27.663Z,23.17
2018-03-03T09:41:16.696Z,21.30
2018-03-03T09:42:05.871Z,20.33
2018-03-03T09:42:54.914Z,91.03
2018-03-03T09:43:44.024Z,24.20
2018-03-03T09:44:33.092Z,19.70
2018-03-03T09:45:22.142Z,15.65
2018-03-03T09:46:11.182Z,12.93
2018-03-03T09:47:00.295Z,23.20
2018-03-03T09:47:49.365Z,7.32
2018-03-03T09:48:38.438Z,7.25
2018-03-03T09:49:27.509Z,9.25
2018-03-03T09:50:16.579Z,8.18
2018-03-03T09:51:05.642Z,9.43
2018-03-03T09:51:54.742Z,8.77
2018-03-03T09:52:43.799Z,9.60
2018-03-03T09:53:32.863Z,15.60
2018-03-03T09:54:21.921Z,24.17
2018-03-03T09:55:10.980Z,15.18
2018-03-03T09:56:00.039Z,24.15
2018-03-03T09:56:49.152Z,18.25
2018-03-03T09:57:38.191Z,14.43
2018-03-03T09:58:27.237Z,16.10
2018-03-03T09:59:16.281Z,18.08
2018-03-03T10:00:05.332Z,23.08
2018-03-03T10:00:54.518Z,22.08
2018-03-03T10:01:43.610Z,12.32
2018-03-03T10:02:32.701Z,11.27
2018-03-03T10:03:21.737Z,7.62
2018-03-03T10:04:10.784Z,7.35
2018-03-03T10:04:59.815Z,6.97
2018-03-03T10:05:48.870Z,5.47
2018-03-03T10:06:37.972Z,4.97
2018-03-03T10:07:27.005Z,6.50
2018-03-03T10:08:16.054Z,15.77
2018-03-03T10:09:05.131Z,10.68
2018-03-03T10:09:54.178Z,10.30
2018-03-03T10:10:43.245Z,12.37
2018-03-03T10:11:32.327Z,9.02
2018-03-03T10:12:21.385Z,5.15
2018-03-03T10:13:10.424Z,13.85
2018-03-03T10:13:59.491Z,7.22
2018-03-03T10:14:48.698Z,4.60
2018-03-03T10:15:37.765Z,7.78
2018-03-03T10:16:26.799Z,7.90
2018-03-03T10:17:15.834Z,7.78
2018-03-03T10:18:04.981Z,9.32
2018-03-03T10:18:54.049Z,7.25
2018-03-03T10:19:43.102Z,12.32
2018-03-03T10:20:32.336Z,15.50
2018-03-03T10:21:21.387Z,11.10
2018-03-03T10:22:10.431Z,3.35
2018-03-03T10:22:59.482Z,6.57
2018-03-03T10:23:48.537Z,8.25
2018-03-03T10:24:37.577Z,6.65
2018-03-03T10:25:26.616Z,10.18
2018-03-03T10:26:15.719Z,5.05
2018-03-03T10:27:04.946Z,5.30
2018-03-03T10:27:54.020Z,4.37
2018-03-03T10:28:43.051Z,6.03
2018-03-03T10:29:32.084Z,6.55
2018-03-03T10:30:21.140Z,10.75
2018-03-03T10:31:10.199Z,7.43
2018-03-03T10:31:59.279Z,6.55
2018-03-03T10:32:48.423Z,7.03
2018-03-03T10:33:37.459Z,4.78
2018-03-03T10:34:26.528Z,3.65
2018-03-03T10:35:15.553Z,9.10
2018-03-03T10:36:04.572Z,7.57
2018-03-03T10:36:53.629Z,6.95
2018-03-03T10:37:42.658Z,8.13
2018-03-03T10:38:31.865Z,10.40
2018-03-03T10:39:20.915Z,22.02
2018-03-03T10:40:09.970Z,10.43
2018-03-03T10:40:59.020Z,7.80
2018-03-03T10:41:48.097Z,7.03
2018-03-03T10:42:37.132Z,4.37
2018-03-03T10:43:26.217Z,5.95
2018-03-03T10:44:15.270Z,5.45
2018-03-03T10:45:04.297Z,5.87
2018-03-03T10:45:53.329Z,7.82
2018-03-03T10:46:42.374Z,4.90
2018-03-03T10:47:31.414Z,2.15
2018-03-03T10:48:20.469Z,4.82
2018-03-03T10:49:09.517Z,13.82
2018-03-03T10:49:58.595Z,4.45
2018-03-03T10:50:47.676Z,3.78
2018-03-03T10:51:36.687Z,6.93
2018-03-03T10:52:25.723Z,4.95